Time;durP1;ratioP1;P1;durP2;ratioP2;P2;SDS_P1;SDS_P2;PMS_P1;PMS_P2;Temp;Humidity;BMP_temperature;BMP_pressure;BME280_temperature;BME280_humidity;BME280_pressure;Samples;Min_cycle;Max_cycle;Signal;HPM_P1;HPM_P2
2022/10/31 00:00:15;;;;;;;9.03;5.67;;;;;;;-143.84;63.36;45127.13;5070339;28;20444;-70
2022/10/31 00:02:42;;;;;;;10.33;6.00;;;;;;;-143.84;63.31;45129.03;5069815;28;20504;-70
2022/10/31 00:05:09;;;;;;;8.03;5.10;;;;;;;-143.84;63.11;45119.53;5069726;28;20449;-70
2022/10/31 00:07:36;;;;;;;23.97;6.53;;;;;;;-143.84;62.83;45117.63;5069790;28;20440;-70
2022/10/31 00:10:06;;;;;;;16.87;5.40;;;;;;;-143.84;62.60;45117.63;5070180;28;21011;-70
2022/10/31 00:12:33;;;;;;;19.53;5.20;;;;;;;-143.84;62.92;45111.91;5069971;28;20449;-70
2022/10/31 00:15:01;;;;;;;4.97;4.50;;;;;;;-143.84;62.87;45117.63;5070004;28;20528;-70
2022/10/31 00:17:28;;;;;;;8.27;4.53;;;;;;;-143.84;62.79;45102.38;5069364;28;20456;-70
2022/10/31 00:19:55;;;;;;;7.93;5.73;;;;;;;-143.84;62.69;45117.63;5069219;28;20436;-71
2022/10/31 00:22:22;;;;;;;9.70;5.50;;;;;;;-143.84;62.76;45104.28;5069809;28;20477;-70
2022/10/31 00:24:49;;;;;;;10.43;5.67;;;;;;;-143.84;62.59;45125.22;5069763;28;20449;-70
2022/10/31 00:27:18;;;;;;;16.97;6.57;;;;;;;-143.84;62.34;45132.84;5069813;28;20448;-70
2022/10/31 00:29:45;;;;;;;8.33;5.73;;;;;;;-143.84;62.33;45110.00;5069721;28;20449;-70
2022/10/31 00:32:12;;;;;;;11.83;5.73;;;;;;;-143.84;62.41;45119.53;5069663;28;20449;-70
2022/10/31 00:34:39;;;;;;;10.40;5.13;;;;;;;-143.84;62.78;45125.22;5069585;28;20953;-70
2022/10/31 00:37:06;;;;;;;18.63;6.50;;;;;;;-143.84;62.76;45096.66;5068864;28;20513;-70
2022/10/31 00:39:33;;;;;;;6.73;5.23;;;;;;;-143.84;62.90;45110.00;5069582;28;20510;-70
2022/10/31 00:42:00;;;;;;;17.43;6.73;;;;;;;-143.84;62.77;45079.53;5069362;28;20468;-70
2022/10/31 00:44:29;;;;;;;9.90;5.27;;;;;;;-143.84;62.98;45132.84;5069603;28;20495;-70
2022/10/31 00:46:56;;;;;;;10.43;5.67;;;;;;;-143.84;62.74;45110.00;5069421;28;20453;-70
2022/10/31 00:49:23;;;;;;;19.07;6.00;;;;;;;-143.84;62.79;45121.44;5069245;28;20444;-70
2022/10/31 00:51:50;;;;;;;12.70;6.03;;;;;;;-143.84;62.66;45134.75;5068602;28;20448;-70
2022/10/31 00:54:17;;;;;;;10.87;6.37;;;;;;;-143.84;62.64;45125.22;5069264;28;20441;-70
2022/10/31 00:56:44;;;;;;;8.60;5.10;;;;;;;-143.84;62.41;45125.22;5068618;28;20440;-70
2022/10/31 00:59:11;;;;;;;8.00;5.60;;;;;;;-143.84;62.31;45125.22;5068733;28;20452;-70
2022/10/31 01:01:40;;;;;;;5.73;5.07;;;;;;;-143.84;62.34;45102.38;5068677;28;21005;-70
2022/10/31 01:04:07;;;;;;;12.43;6.20;;;;;;;-143.84;62.65;45130.94;5068954;28;20573;-70
2022/10/31 01:06:34;;;;;;;18.73;5.57;;;;;;;-143.84;62.20;45123.34;5069307;28;20455;-70
2022/10/31 01:09:01;;;;;;;10.17;5.20;;;;;;;-143.84;62.10;45134.75;5069159;28;20970;-70
2022/10/31 01:11:28;;;;;;;10.93;5.20;;;;;;;-143.84;62.06;45098.56;5069209;28;20444;-70
2022/10/31 01:13:56;;;;;;;18.63;6.33;;;;;;;-143.84;61.99;45123.34;5068938;28;20444;-70
2022/10/31 01:16:24;;;;;;;11.10;5.70;;;;;;;-143.84;62.34;45098.56;5069116;28;20973;-70
2022/10/31 01:18:54;;;;;;;7.73;5.80;;;;;;;-143.84;62.13;45104.28;5069172;28;20441;-70
2022/10/31 01:21:23;;;;;;;16.90;6.17;;;;;;;-143.84;61.94;45102.38;5068869;28;20429;-70
2022/10/31 01:23:50;;;;;;;15.83;5.60;;;;;;;-143.84;62.07;45115.72;5068842;28;20441;-70
2022/10/31 01:26:20;;;;;;;9.90;5.83;;;;;;;-143.84;61.79;45113.81;5068553;28;20441;-70
2022/10/31 01:28:49;;;;;;;9.70;5.83;;;;;;;-143.84;61.79;45108.09;5068308;28;20441;-70
2022/10/31 01:31:18;;;;;;;7.70;5.77;;;;;;;-143.84;61.72;45106.19;5068920;28;20546;-70
2022/10/31 01:33:45;;;;;;;13.60;6.30;;;;;;;-143.84;61.70;45121.44;5068702;28;20444;-70
2022/10/31 01:36:17;;;;;;;10.83;5.97;;;;;;;-143.84;61.55;45125.22;5069119;28;20942;-70
2022/10/31 01:38:44;;;;;;;6.53;5.90;;;;;;;-143.84;61.97;45134.75;5068487;28;20448;-70
2022/10/31 01:41:14;;;;;;;7.87;5.57;;;;;;;-143.84;62.00;45115.72;5068932;28;20510;-70
2022/10/31 01:43:47;;;;;;;14.07;5.70;;;;;;;-143.84;62.06;45142.38;5068681;28;20483;-71
2022/10/31 01:46:17;;;;;;;13.37;5.83;;;;;;;-143.84;62.14;45136.66;5068591;28;20514;-70
2022/10/31 01:48:44;;;;;;;9.60;5.57;;;;;;;-143.84;62.12;45094.78;5068514;28;20456;-70
2022/10/31 01:51:16;;;;;;;12.30;6.07;;;;;;;-143.84;62.31;45129.03;5068686;28;20799;-70
2022/10/31 01:53:46;;;;;;;9.93;6.47;;;;;;;-143.84;62.44;45106.19;5068773;28;20452;-70
2022/10/31 01:56:17;;;;;;;12.83;6.70;;;;;;;-143.84;62.67;45110.00;5068512;28;20527;-70
2022/10/31 01:58:47;;;;;;;15.43;6.43;;;;;;;-143.84;62.78;45123.34;5068377;28;20445;-70
2022/10/31 02:01:15;;;;;;;11.20;6.07;;;;;;;-143.84;62.95;45113.81;5068624;28;21309;-70
2022/10/31 02:03:43;;;;;;;9.90;6.57;;;;;;;-143.84;63.07;45132.84;5071025;28;20561;-70
2022/10/31 02:06:22;;;;;;;15.93;7.03;;;;;;;-143.84;63.30;45121.44;5072135;28;20441;-70
2022/10/31 02:08:49;;;;;;;20.83;6.77;;;;;;;-143.84;63.39;45129.03;5071952;28;20475;-70
2022/10/31 02:11:17;;;;;;;11.87;6.13;;;;;;;-143.84;63.54;45119.53;5072170;28;20535;-70
2022/10/31 02:13:44;;;;;;;10.73;6.73;;;;;;;-143.84;63.65;45123.34;5072578;28;20467;-70
2022/10/31 02:16:11;;;;;;;14.13;6.53;;;;;;;-143.84;63.79;45087.16;5072436;28;20433;-70
2022/10/31 02:18:38;;;;;;;19.27;6.97;;;;;;;-143.84;63.85;45127.13;5072341;28;20454;-70
2022/10/31 02:21:16;;;;;;;11.10;5.97;;;;;;;-143.84;63.86;45106.19;5072186;28;20502;-70
2022/10/31 02:24:44;;;;;;;8.07;5.77;;;;;;;-143.84;64.41;45123.34;5072120;28;21037;-70
2022/10/31 02:27:22;;;;;;;9.00;6.77;;;;;;;-143.84;64.97;45123.34;4990483;28;20506;-70
2022/10/31 02:30:05;;;;;;;11.30;6.60;;;;;;;-143.84;64.94;45106.19;4990088;28;20435;-70
2022/10/31 02:32:44;;;;;;;11.23;6.80;;;;;;;-143.84;65.09;45130.94;5040899;28;20479;-70
2022/10/31 02:35:23;;;;;;;13.83;6.93;;;;;;;-143.84;64.84;45089.06;5071879;28;20484;-70
2022/10/31 02:37:58;;;;;;;10.57;6.70;;;;;;;-143.84;64.56;45110.00;5071137;28;20452;-70
2022/10/31 02:40:31;;;;;;;8.23;6.77;;;;;;;-143.84;64.42;45100.47;5071616;28;20455;-70
2022/10/31 02:43:06;;;;;;;20.77;6.73;;;;;;;-143.84;64.46;45092.88;5071048;28;20488;-70
2022/10/31 02:45:41;;;;;;;12.10;6.40;;;;;;;-143.84;65.36;45121.44;5071168;28;20440;-71
2022/10/31 02:48:14;;;;;;;7.80;6.03;;;;;;;-143.84;65.54;45119.53;5071561;28;20937;-70
2022/10/31 02:50:45;;;;;;;11.30;5.70;;;;;;;-143.84;66.07;45144.28;5070836;28;20502;-70
2022/10/31 02:53:16;;;;;;;15.47;8.03;;;;;;;-143.84;66.12;45125.22;5071144;28;20432;-70
2022/10/31 02:55:51;;;;;;;8.20;7.13;;;;;;;-143.84;66.38;45121.44;5071770;28;20978;-70
2022/10/31 02:58:23;;;;;;;16.17;6.73;;;;;;;-143.84;66.30;45129.03;5071839;28;20451;-70
2022/10/31 03:01:11;;;;;;;9.63;6.07;;;;;;;-143.84;66.35;45136.66;5071390;28;20451;-70
2022/10/31 03:03:54;;;;;;;9.60;6.40;;;;;;;-143.84;66.27;45142.38;5071173;28;20499;-70
2022/10/31 03:06:31;;;;;;;10.23;6.57;;;;;;;-143.84;65.96;45117.63;5071509;28;20436;-70
2022/10/31 03:09:05;;;;;;;13.10;7.00;;;;;;;-143.84;66.23;45111.91;5071323;28;20440;-70
2022/10/31 03:11:41;;;;;;;14.43;7.30;;;;;;;-143.84;66.19;45125.22;5071387;28;20498;-70
2022/10/31 03:14:16;;;;;;;7.23;6.50;;;;;;;-143.84;65.72;45071.91;5069465;28;20452;-70
2022/10/31 03:16:48;;;;;;;12.40;7.00;;;;;;;-143.84;65.91;45129.03;5070669;28;20448;-71
2022/10/31 03:19:19;;;;;;;11.20;7.13;;;;;;;-143.84;65.88;45123.34;5070691;28;20891;-70
2022/10/31 03:21:51;;;;;;;11.10;5.87;;;;;;;-143.84;66.10;45110.00;5071097;28;20509;-70
2022/10/31 03:24:22;;;;;;;18.30;6.80;;;;;;;-143.84;65.95;45111.91;5070852;28;20488;-70
2022/10/31 03:26:53;;;;;;;11.93;6.77;;;;;;;-143.84;65.79;45125.22;5071256;28;20448;-70
2022/10/31 03:29:25;;;;;;;12.13;6.37;;;;;;;-143.84;65.47;45104.28;5071020;28;20440;-70
2022/10/31 03:31:56;;;;;;;10.10;6.47;;;;;;;-143.84;65.69;45138.56;5071333;28;20436;-70
2022/10/31 03:34:25;;;;;;;10.00;6.37;;;;;;;-143.84;65.73;45125.22;5070825;28;20456;-70
2022/10/31 03:36:57;;;;;;;8.40;6.23;;;;;;;-143.84;65.96;45127.13;5070956;28;20448;-70
2022/10/31 03:39:25;;;;;;;13.27;7.13;;;;;;;-143.84;65.91;45127.13;5070755;28;20521;-70
2022/10/31 03:41:58;;;;;;;9.70;6.63;;;;;;;-143.84;65.84;45140.47;5070538;28;20440;-70
2022/10/31 03:44:27;;;;;;;10.90;7.03;;;;;;;-143.84;66.04;45108.09;5070759;28;20476;-70
2022/10/31 03:46:55;;;;;;;20.60;6.70;;;;;;;-143.84;66.09;45138.56;5070629;28;20973;-70
2022/10/31 03:49:23;;;;;;;13.87;7.00;;;;;;;-143.84;65.96;45142.38;5070955;28;20999;-70
2022/10/31 03:51:58;;;;;;;10.67;6.53;;;;;;;-143.84;66.36;45127.13;5070704;28;20501;-70
2022/10/31 03:54:35;;;;;;;25.10;5.70;;;;;;;-143.84;66.36;45125.22;5070438;28;20916;-71
2022/10/31 03:57:12;;;;;;;7.00;5.50;;;;;;;-143.84;66.77;45110.00;5070000;28;20436;-70
2022/10/31 03:59:43;;;;;;;6.63;5.70;;;;;;;-143.84;66.76;45125.22;5070152;28;20502;-71
2022/10/31 04:02:17;;;;;;;14.03;5.17;;;;;;;-143.84;66.79;45132.84;5070585;28;20969;-70
2022/10/31 04:04:45;;;;;;;20.30;6.63;;;;;;;-143.84;66.67;45136.66;5070287;28;21071;-70
2022/10/31 04:07:14;;;;;;;10.93;5.50;;;;;;;-143.84;66.94;45115.72;5070404;28;20436;-70
2022/10/31 04:09:46;;;;;;;15.90;6.87;;;;;;;-143.84;67.16;45125.22;5070078;28;20527;-70
2022/10/31 04:12:16;;;;;;;8.73;5.63;;;;;;;-143.84;66.90;45115.72;5069720;28;20440;-70
2022/10/31 04:14:47;;;;;;;10.73;5.30;;;;;;;-143.84;66.83;45142.38;5070093;28;20444;-70
2022/10/31 04:17:19;;;;;;;13.37;6.87;;;;;;;-143.84;67.10;45117.63;5070384;28;20441;-70
2022/10/31 04:19:46;;;;;;;9.13;5.00;;;;;;;-143.84;67.04;45121.44;5070113;28;20444;-70
2022/10/31 04:22:15;;;;;;;10.57;5.50;;;;;;;-143.84;67.02;45127.13;5070340;28;20436;-70
2022/10/31 04:24:42;;;;;;;21.60;5.70;;;;;;;-143.84;66.99;45132.84;5069794;28;20456;-70
2022/10/31 04:27:09;;;;;;;14.37;6.07;;;;;;;-143.84;66.70;45113.81;5068876;28;20810;-70
2022/10/31 04:29:36;;;;;;;11.90;6.27;;;;;;;-143.84;66.58;45130.94;5069904;28;20432;-70
2022/10/31 04:32:03;;;;;;;16.83;6.47;;;;;;;-143.84;66.41;45117.63;5069640;28;20946;-70
2022/10/31 04:34:30;;;;;;;23.13;5.80;;;;;;;-143.84;66.50;45113.81;5069741;28;20445;-70
2022/10/31 04:36:58;;;;;;;10.20;5.00;;;;;;;-143.84;66.13;45110.00;5069876;28;20449;-70
2022/10/31 04:39:26;;;;;;;9.30;6.20;;;;;;;-143.84;66.33;45119.53;5069687;28;20452;-70
2022/10/31 04:41:53;;;;;;;39.60;5.80;;;;;;;-143.84;65.90;45106.19;5069570;28;20847;-70
2022/10/31 04:44:20;;;;;;;9.33;5.60;;;;;;;-143.84;65.99;45127.13;5069561;28;20557;-70
2022/10/31 04:46:48;;;;;;;12.07;5.90;;;;;;;-143.84;65.49;45106.19;5069437;28;20444;-70
2022/10/31 04:49:15;;;;;;;7.20;5.80;;;;;;;-143.84;65.27;45121.44;5069396;28;20440;-70
2022/10/31 04:51:42;;;;;;;14.17;6.50;;;;;;;-143.84;64.99;45121.44;5069394;28;20428;-70
2022/10/31 04:54:09;;;;;;;10.13;5.73;;;;;;;-143.84;64.94;45132.84;5069916;28;20433;-70
2022/10/31 04:56:38;;;;;;;12.80;5.63;;;;;;;-143.84;64.65;45094.78;5069384;28;20938;-70
2022/10/31 04:59:05;;;;;;;11.57;6.00;;;;;;;-143.84;65.30;45134.75;5069444;28;20441;-70
2022/10/31 05:01:32;;;;;;;11.80;6.07;;;;;;;-143.84;66.21;45110.00;5069273;28;21022;-70
2022/10/31 05:03:59;;;;;;;24.73;7.30;;;;;;;-143.84;67.01;45110.00;5069015;28;20629;-70
2022/10/31 05:06:26;;;;;;;10.70;7.50;;;;;;;-143.84;67.34;45129.03;5069387;28;21170;-70
2022/10/31 05:08:53;;;;;;;13.50;6.33;;;;;;;-143.84;67.88;45119.53;5069040;28;20502;-70
2022/10/31 05:11:20;;;;;;;11.60;6.93;;;;;;;-143.84;67.95;45117.63;5068992;28;20453;-70
2022/10/31 05:13:49;;;;;;;14.40;8.27;;;;;;;-143.84;67.63;45111.91;5069245;28;20459;-70
2022/10/31 05:16:16;;;;;;;8.87;6.77;;;;;;;-143.84;67.43;45130.94;5068842;28;20449;-70
2022/10/31 05:18:43;;;;;;;13.97;8.00;;;;;;;-143.84;67.10;45129.03;5068970;28;20828;-70
2022/10/31 05:21:11;;;;;;;19.60;7.90;;;;;;;-143.84;65.61;45106.19;5068964;28;20510;-70
2022/10/31 05:23:38;;;;;;;12.73;7.53;;;;;;;-143.84;65.74;45115.72;5068990;28;20487;-70
2022/10/31 05:26:05;;;;;;;14.40;7.83;;;;;;;-143.84;66.10;45123.34;5068960;28;20476;-70
2022/10/31 05:28:32;;;;;;;23.27;9.57;;;;;;;-143.84;65.62;45098.56;5068918;28;20930;-70
2022/10/31 05:31:01;;;;;;;14.80;8.37;;;;;;;-143.84;65.51;45117.63;5067787;28;20475;-70
2022/10/31 05:33:28;;;;;;;23.03;9.83;;;;;;;-143.84;65.20;45130.94;5068042;28;20946;-71
2022/10/31 05:35:55;;;;;;;12.27;8.43;;;;;;;-143.84;65.83;45117.63;5067824;28;20969;-70
2022/10/31 05:38:22;;;;;;;28.47;10.13;;;;;;;-143.84;66.08;45108.09;5067861;28;20448;-70
2022/10/31 05:40:50;;;;;;;18.80;10.50;;;;;;;-143.84;66.23;45115.72;5067688;28;20922;-70
2022/10/31 05:43:17;;;;;;;20.80;9.53;;;;;;;-143.84;66.38;45111.91;5067932;28;21040;-70
2022/10/31 05:45:44;;;;;;;20.13;9.53;;;;;;;-143.84;66.38;45123.34;5068581;28;21003;-70
2022/10/31 05:48:12;;;;;;;17.27;9.30;;;;;;;-143.84;66.61;45151.91;5068811;28;20506;-70
2022/10/31 05:50:40;;;;;;;15.03;9.57;;;;;;;-143.84;66.94;45129.03;5068627;28;20448;-70
2022/10/31 05:53:07;;;;;;;21.50;10.20;;;;;;;-143.84;67.18;45081.44;5068676;28;20445;-70
2022/10/31 05:55:34;;;;;;;17.07;10.30;;;;;;;-143.84;67.56;45129.03;5068570;28;20798;-70
2022/10/31 05:58:01;;;;;;;15.67;10.40;;;;;;;-143.84;67.78;45106.19;5068676;28;20464;-70
2022/10/31 06:00:29;;;;;;;12.93;9.90;;;;;;;-143.84;67.67;45113.81;5068526;28;21004;-70
2022/10/31 06:03:00;;;;;;;14.83;9.90;;;;;;;-143.84;67.70;45136.66;5068376;28;20518;-70
2022/10/31 06:05:29;;;;;;;18.27;9.70;;;;;;;-143.84;67.87;45117.63;5068957;28;20514;-70
2022/10/31 06:07:57;;;;;;;15.47;10.20;;;;;;;-143.84;68.00;45140.47;5068148;28;20456;-70
2022/10/31 06:10:24;;;;;;;15.47;10.20;;;;;;;-143.84;67.54;45111.91;5068287;28;20441;-70
2022/10/31 06:12:51;;;;;;;16.90;11.63;;;;;;;-143.84;67.85;45108.09;5068358;28;20586;-70
2022/10/31 06:15:19;;;;;;;21.93;9.60;;;;;;;-143.84;68.24;45110.00;5068258;28;20448;-70
2022/10/31 06:17:46;;;;;;;23.80;11.37;;;;;;;-143.84;68.26;45102.38;5068425;28;20441;-70
2022/10/31 06:20:13;;;;;;;20.23;10.90;;;;;;;-143.84;68.66;45136.66;5068460;28;20452;-70
2022/10/31 06:22:42;;;;;;;19.40;10.60;;;;;;;-143.84;68.88;45127.13;5068325;28;20459;-70
2022/10/31 06:25:09;;;;;;;22.10;10.90;;;;;;;-143.84;68.80;45108.09;5068361;28;20476;-71
2022/10/31 06:27:36;;;;;;;26.30;12.10;;;;;;;-143.84;69.72;45083.34;5068385;28;20486;-70
2022/10/31 06:30:04;;;;;;;19.30;11.20;;;;;;;-143.84;70.06;45150.00;5067938;28;20452;-70
2022/10/31 06:32:31;;;;;;;14.47;10.77;;;;;;;-143.84;69.50;45110.00;5068414;28;20433;-70
2022/10/31 06:34:59;;;;;;;23.57;11.40;;;;;;;-143.84;69.83;45108.09;5068359;28;20440;-70
2022/10/31 06:37:26;;;;;;;33.53;12.50;;;;;;;-143.84;70.40;45102.38;5068082;28;20456;-70
2022/10/31 06:39:54;;;;;;;22.07;12.57;;;;;;;-143.84;70.10;45102.38;5068221;28;20869;-70
2022/10/31 06:42:21;;;;;;;26.47;14.20;;;;;;;-143.84;70.44;45121.44;5068479;28;20437;-70
2022/10/31 06:44:49;;;;;;;26.93;12.97;;;;;;;-143.84;70.51;45098.56;5068045;28;20481;-70
2022/10/31 06:47:16;;;;;;;19.80;12.50;;;;;;;-143.84;70.42;45148.09;5068090;28;20946;-70
2022/10/31 06:49:43;;;;;;;24.17;12.03;;;;;;;-143.84;70.48;45115.72;5069077;28;20505;-70
2022/10/31 06:52:10;;;;;;;24.20;13.30;;;;;;;-143.84;70.57;45123.34;5071567;28;21015;-70
2022/10/31 06:54:37;;;;;;;20.83;12.80;;;;;;;-143.84;70.25;45125.22;5071722;28;20447;-70
2022/10/31 06:57:06;;;;;;;24.47;12.90;;;;;;;-143.84;70.23;45106.19;5071614;28;20449;-70
2022/10/31 06:59:33;;;;;;;25.77;12.23;;;;;;;-143.84;70.04;45121.44;5070892;28;20455;-70
2022/10/31 07:02:00;;;;;;;26.03;13.87;;;;;;;-143.84;70.12;45110.00;5071320;28;20441;-70
2022/10/31 07:04:27;;;;;;;22.10;13.50;;;;;;;-143.84;70.27;45113.81;5071213;28;20554;-70
2022/10/31 07:06:54;;;;;;;22.60;13.23;;;;;;;-143.84;69.55;45096.66;5071002;28;20445;-70
2022/10/31 07:09:21;;;;;;;22.93;12.20;;;;;;;-143.84;70.28;45108.09;5071656;28;20460;-70
2022/10/31 07:11:48;;;;;;;16.50;13.30;;;;;;;-143.84;70.03;45094.78;5071154;28;20433;-70
2022/10/31 07:14:17;;;;;;;17.03;12.13;;;;;;;-143.84;69.52;45102.38;5071253;28;20437;-70
2022/10/31 07:16:44;;;;;;;19.00;12.10;;;;;;;-143.84;69.35;45111.91;5071063;28;20437;-70
2022/10/31 07:19:12;;;;;;;19.80;12.77;;;;;;;-143.84;69.62;45125.22;5071002;28;20429;-70
2022/10/31 07:21:39;;;;;;;25.53;12.30;;;;;;;-143.84;68.97;45096.66;5070783;28;20440;-70
2022/10/31 07:24:06;;;;;;;22.63;12.10;;;;;;;-143.84;67.71;45127.13;5070480;28;20487;-70
2022/10/31 07:26:33;;;;;;;19.20;13.70;;;;;;;-143.84;67.18;45102.38;5053132;28;21031;-70
2022/10/31 07:29:00;;;;;;;25.53;12.10;;;;;;;-143.84;66.68;45111.91;5070577;28;20498;-70
2022/10/31 07:34:51;;;;;;;24.43;13.40;;;;;;;-143.84;66.89;45108.09;5070837;28;20494;-70
2022/10/31 07:37:20;;;;;;;22.40;13.13;;;;;;;-143.84;66.66;45115.72;5070766;28;20973;-70
2022/10/31 07:39:48;;;;;;;21.20;14.20;;;;;;;-143.84;66.12;45108.09;5070883;28;20445;-70
2022/10/31 07:42:15;;;;;;;20.23;13.10;;;;;;;-143.84;66.47;45106.19;5070765;28;20436;-70
2022/10/31 07:44:42;;;;;;;30.93;17.30;;;;;;;-143.84;67.85;45106.19;5070730;28;20488;-70
2022/10/31 07:47:09;;;;;;;30.43;16.80;;;;;;;-143.84;68.53;45098.56;5070582;28;20441;-70
2022/10/31 07:49:37;;;;;;;33.27;16.50;;;;;;;-143.84;69.72;45094.78;5069553;28;20437;-70
2022/10/31 07:52:06;;;;;;;26.83;16.77;;;;;;;-143.84;69.57;45073.81;5069955;28;20445;-70
2022/10/31 07:54:33;;;;;;;29.60;17.07;;;;;;;-143.84;69.39;45104.28;5070073;28;20449;-70
2022/10/31 07:57:00;;;;;;;28.40;17.97;;;;;;;-143.84;69.43;45108.09;5070342;28;20437;-70
2022/10/31 07:59:27;;;;;;;27.07;18.00;;;;;;;-143.84;70.69;45110.00;5070493;28;20514;-70
2022/10/31 08:01:54;;;;;;;31.90;17.97;;;;;;;-143.84;71.04;45115.72;5070474;28;20445;-70
2022/10/31 08:04:22;;;;;;;26.90;18.63;;;;;;;-143.84;68.76;45096.66;5069790;28;20986;-70
2022/10/31 08:06:49;;;;;;;22.87;16.03;;;;;;;-143.84;67.60;45090.97;5070541;28;20452;-70
2022/10/31 08:09:17;;;;;;;26.13;15.50;;;;;;;-143.84;65.82;45098.56;5070380;28;20441;-70
2022/10/31 08:11:45;;;;;;;23.03;14.60;;;;;;;-143.84;64.22;45092.88;5070167;28;20452;-70
2022/10/31 08:14:12;;;;;;;29.07;16.30;;;;;;;-143.84;62.00;45073.81;5070323;28;20445;-70
2022/10/31 08:16:39;;;;;;;24.90;16.90;;;;;;;-143.84;60.63;45056.69;5070358;28;20514;-70
2022/10/31 08:19:06;;;;;;;17.00;12.43;;;;;;;-143.84;56.54;45054.78;5069808;28;20452;-70
2022/10/31 08:21:33;;;;;;;36.30;17.37;;;;;;;-143.84;56.31;45083.34;5070215;28;20470;-70
2022/10/31 08:24:00;;;;;;;28.43;14.00;;;;;;;-143.84;56.31;45068.13;5069293;28;20484;-70
2022/10/31 08:26:29;;;;;;;33.77;20.40;;;;;;;-143.84;54.76;45056.69;5069801;28;20436;-70
2022/10/31 08:28:56;;;;;;;27.40;18.33;;;;;;;-143.84;54.03;45081.44;5069922;28;20437;-70
2022/10/31 08:31:26;;;;;;;23.80;17.67;;;;;;;-143.84;55.11;45045.25;5070145;28;20945;-70
2022/10/31 08:33:53;;;;;;;25.10;16.50;;;;;;;-143.84;53.62;45070.00;5069835;28;20522;-70
2022/10/31 08:36:21;;;;;;;40.97;17.20;;;;;;;-143.84;53.21;45070.00;5069890;28;20428;-70
2022/10/31 08:38:48;;;;;;;27.47;15.30;;;;;;;-143.84;52.99;45060.50;5069734;28;20515;-70
2022/10/31 08:41:15;;;;;;;36.27;18.67;;;;;;;-143.84;53.09;45066.22;5069649;28;20429;-70
2022/10/31 08:43:44;;;;;;;27.03;14.60;;;;;;;-143.84;52.94;45052.88;5069463;28;20437;-70
2022/10/31 08:46:11;;;;;;;26.83;16.67;;;;;;;-143.84;53.29;45037.66;5069604;28;20502;-70
2022/10/31 08:48:39;;;;;;;39.03;20.30;;;;;;;-143.84;53.04;45049.06;5069351;28;20437;-70
2022/10/31 08:51:06;;;;;;;33.60;21.00;;;;;;;-143.84;52.53;45064.31;5069085;28;20440;-70
2022/10/31 08:53:33;;;;;;;35.97;17.93;;;;;;;-143.84;52.53;45052.88;5069644;28;20914;-70
2022/10/31 08:56:00;;;;;;;29.10;16.47;;;;;;;-143.84;50.84;45073.81;5069359;28;20468;-70
2022/10/31 08:58:28;;;;;;;33.50;17.50;;;;;;;-143.84;51.27;45030.03;5069281;28;20445;-70
2022/10/31 09:00:58;;;;;;;35.60;18.60;;;;;;;-143.84;50.50;45043.34;5069383;28;20832;-70
2022/10/31 09:03:28;;;;;;;30.20;16.47;;;;;;;-143.84;50.14;45052.88;5069166;28;20523;-70
2022/10/31 09:05:58;;;;;;;28.17;15.77;;;;;;;-143.84;50.07;45035.75;5069254;28;20492;-70
2022/10/31 09:08:26;;;;;;;28.07;15.67;;;;;;;-143.84;50.32;45068.13;5069137;28;20445;-70
2022/10/31 09:10:53;;;;;;;36.57;16.23;;;;;;;-143.84;50.88;45056.69;5069291;28;20437;-70
2022/10/31 09:13:22;;;;;;;18.97;14.80;;;;;;;-143.84;49.94;45031.94;5068593;28;20949;-70
2022/10/31 09:15:50;;;;;;;29.50;17.10;;;;;;;-143.84;49.87;45050.97;5069130;28;20440;-70
2022/10/31 09:18:21;;;;;;;25.63;15.50;;;;;;;-143.84;49.26;45037.66;5068462;28;20969;-70
2022/10/31 09:20:49;;;;;;;29.93;16.00;;;;;;;-143.84;49.73;45083.34;5068339;28;20449;-70
2022/10/31 09:23:18;;;;;;;38.83;14.73;;;;;;;-143.84;50.13;45071.91;5069061;28;20436;-70
2022/10/31 09:25:46;;;;;;;35.70;16.80;;;;;;;-143.84;48.38;45030.03;5068900;28;20480;-70
2022/10/31 09:28:15;;;;;;;24.33;14.53;;;;;;;-143.84;48.77;45022.41;5068989;28;20867;-70
2022/10/31 09:30:43;;;;;;;27.70;15.60;;;;;;;-143.84;49.98;45045.25;5068838;28;20507;-70
2022/10/31 09:33:12;;;;;;;22.13;15.20;;;;;;;-143.84;50.30;45087.16;5068688;28;20440;-70
2022/10/31 09:35:41;;;;;;;25.73;15.20;;;;;;;-143.84;50.53;45064.31;5068733;28;20506;-70
2022/10/31 09:38:11;;;;;;;22.07;14.73;;;;;;;-143.84;49.42;45058.59;5069143;28;20441;-70
2022/10/31 09:40:40;;;;;;;22.03;12.03;;;;;;;-143.84;49.59;45037.66;5068900;28;20510;-70
2022/10/31 09:43:15;;;;;;;16.97;11.77;;;;;;;-143.84;47.94;45041.44;5068837;28;20437;-70
2022/10/31 09:45:54;;;;;;;19.53;11.80;;;;;;;-143.84;47.42;45033.84;5068601;28;20484;-70
2022/10/31 09:48:42;;;;;;;16.00;12.20;;;;;;;-143.84;47.73;45016.69;5068400;28;20802;-70
2022/10/31 09:51:16;;;;;;;18.80;11.87;;;;;;;-143.84;48.68;45049.06;5068448;28;20923;-70
2022/10/31 09:53:47;;;;;;;24.53;12.07;;;;;;;-143.84;48.63;45018.59;5068682;28;20518;-70
2022/10/31 09:56:16;;;;;;;18.33;10.60;;;;;;;-143.84;48.44;45043.34;5068920;28;20934;-70
2022/10/31 09:58:46;;;;;;;26.00;11.00;;;;;;;-143.84;48.37;45062.41;5068474;28;20437;-70
2022/10/31 10:01:34;;;;;;;15.37;9.50;;;;;;;-143.84;47.73;45037.66;5068468;28;20437;-70
2022/10/31 10:04:09;;;;;;;12.80;8.03;;;;;;;-143.84;44.71;45085.25;5068387;28;20484;-70
2022/10/31 10:06:47;;;;;;;14.77;8.90;;;;;;;-143.84;45.69;45056.69;5068353;28;20456;-70
2022/10/31 10:09:15;;;;;;;13.40;8.80;;;;;;;-143.84;46.78;45028.13;5067760;28;20448;-70
2022/10/31 10:11:56;;;;;;;19.87;12.60;;;;;;;-143.84;48.95;45049.06;5068092;28;20445;-70
2022/10/31 10:14:44;;;;;;;20.67;9.00;;;;;;;-143.84;46.01;45030.03;5068071;28;20501;-70
2022/10/31 10:17:21;;;;;;;21.37;9.30;;;;;;;-143.84;45.87;45071.91;5068416;28;20441;-71
2022/10/31 10:20:21;;;;;;;16.53;9.80;;;;;;;-143.84;45.41;45037.66;5068380;28;20445;-71
2022/10/31 10:22:58;;;;;;;11.10;8.93;;;;;;;-143.84;46.25;45039.53;5068324;28;20452;-71
2022/10/31 10:25:34;;;;;;;18.43;9.40;;;;;;;-143.84;46.89;45052.88;5072085;28;21065;-71
2022/10/31 10:28:13;;;;;;;14.63;8.47;;;;;;;-143.84;45.08;45070.00;5072273;28;20444;-71
2022/10/31 10:30:43;;;;;;;24.40;10.30;;;;;;;-143.84;45.24;45033.84;5072051;28;20440;-71
2022/10/31 10:33:15;;;;;;;22.60;9.97;;;;;;;-143.84;44.84;45066.22;5071862;28;20487;-71
2022/10/31 10:35:47;;;;;;;25.83;9.43;;;;;;;-143.84;45.50;45026.22;5072035;28;20514;-71
2022/10/31 10:38:24;;;;;;;17.03;10.30;;;;;;;-143.84;45.32;45033.84;5071956;28;20447;-71
2022/10/31 10:40:56;;;;;;;16.43;10.07;;;;;;;-143.84;43.87;45056.69;5071772;28;20449;-71
2022/10/31 10:43:27;;;;;;;24.27;10.80;;;;;;;-143.84;44.82;45047.16;5071828;28;21185;-70
2022/10/31 10:48:58;;;;;;;37.07;9.53;;;;;;;-143.84;44.34;45064.31;5071969;28;20850;-69
2022/10/31 10:51:33;;;;;;;12.17;8.60;;;;;;;-143.84;45.55;45054.78;5071926;28;20439;-70
2022/10/31 10:54:14;;;;;;;13.03;9.33;;;;;;;-143.84;46.71;45037.66;5071657;28;20464;-70
2022/10/31 10:56:52;;;;;;;9.30;7.77;;;;;;;-143.84;44.67;45062.41;5071429;28;20451;-70
2022/10/31 10:59:22;;;;;;;17.23;9.23;;;;;;;-143.84;45.04;45035.75;5071353;28;20532;-70
2022/10/31 11:01:52;;;;;;;16.70;9.60;;;;;;;-143.84;43.87;45064.31;5071486;28;20440;-70
2022/10/31 11:04:30;;;;;;;12.63;9.13;;;;;;;-143.84;42.85;45028.13;5071332;28;20480;-70
2022/10/31 11:07:02;;;;;;;11.00;8.80;;;;;;;-143.84;43.56;45030.03;5070864;28;20440;-71
2022/10/31 11:09:30;;;;;;;19.13;9.27;;;;;;;-143.84;44.73;45037.66;5070859;28;20475;-70
2022/10/31 11:11:59;;;;;;;14.10;8.17;;;;;;;-143.84;45.95;45058.59;5071360;28;20566;-71
2022/10/31 11:14:28;;;;;;;13.50;8.40;;;;;;;-143.84;46.57;45033.84;5070613;28;20437;-71
2022/10/31 11:17:08;;;;;;;17.30;9.10;;;;;;;-143.84;48.39;45049.06;5070860;28;20441;-70
2022/10/31 11:19:36;;;;;;;18.17;8.67;;;;;;;-143.84;49.26;45050.97;5071394;28;20446;-70
2022/10/31 11:22:08;;;;;;;14.97;9.30;;;;;;;-143.84;49.85;45050.97;5071349;28;20437;-70
2022/10/31 11:24:41;;;;;;;9.10;7.57;;;;;;;-143.84;49.60;45071.91;5071154;28;20939;-70